Time;durP1;ratioP1;P1;durP2;ratioP2;P2;SDS_P1;SDS_P2;PMS_P1;PMS_P2;Temp;Humidity;BMP_temperature;BMP_pressure;BME280_temperature;BME280_humidity;BME280_pressure;Samples;Min_cycle;Max_cycle;Signal;HPM_P1;HPM_P2
2024/03/15 05:41:54;;;;;;;;;;;;;;;4.85;100.00;100390.66;113120;1248;22540;-54
2024/03/15 05:44:21;;;;;;;;;;;;;;;4.81;100.00;100392.32;112873;1247;22388;-56
2024/03/15 05:46:50;;;;;;;;;;;;;;;4.80;100.00;100395.05;113081;1238;22382;-55
2024/03/15 05:49:17;;;;;;;;;;;;;;;4.81;100.00;100392.83;113179;1236;22375;-54
2024/03/15 05:51:45;;;;;;;;;;;;;;;4.82;100.00;100394.23;113047;1248;22360;-56
2024/03/15 05:54:12;;;;;;;;;;;;;;;4.81;100.00;100397.84;113261;1236;22349;-56
2024/03/15 05:56:39;;;;;;;;;;;;;;;4.84;100.00;100403.09;113069;1248;22378;-54
2024/03/15 05:59:07;;;;;;;;;;;;;;;4.84;100.00;100403.10;112944;1242;22516;-56
2024/03/15 06:01:40;;;;;;;;;;;;;;;4.86;100.00;100406.77;112941;1248;22566;-56
2024/03/15 06:04:33;;;;;;;;;;;;;;;4.85;100.00;100410.88;112962;1248;22391;-57
2024/03/15 06:07:01;;;;;;;;;;;;;;;4.84;100.00;100412.59;113173;1248;23107;-57
2024/03/15 06:09:36;;;;;;;;;;;;;;;4.83;100.00;100413.61;112865;1248;23097;-57
2024/03/15 06:12:28;;;;;;;;;;;;;;;4.84;100.00;100412.95;112811;1248;22361;-56
2024/03/15 06:14:56;;;;;;;;;;;;;;;4.84;100.00;100409.33;112877;1248;22480;-56
2024/03/15 06:17:25;;;;;;;;;;;;;;;4.85;100.00;100410.54;113123;1244;22360;-57
2024/03/15 06:20:12;;;;;;;;;;;;;;;4.87;100.00;100410.59;112834;1248;22396;-55
2024/03/15 06:23:00;;;;;;;;;;;;;;;4.89;100.00;100409.45;112554;1248;22567;-55
2024/03/15 06:26:02;;;;;;;;;;;;;;;4.92;100.00;100407.27;112682;1248;23642;-60
2024/03/15 06:29:11;;;;;;;;;;;;;;;4.99;100.00;100409.70;112738;1248;22442;-56
2024/03/15 06:33:45;;;;;;;;;;;;;;;5.03;100.00;100414.10;112624;1248;23401;-57
2024/03/15 06:36:29;;;;;;;;;;;;;;;5.08;100.00;100411.80;112700;1248;22394;-56
2024/03/15 06:39:19;;;;;;;;;;;;;;;5.12;100.00;100413.97;112704;1248;22825;-55
2024/03/15 06:42:08;;;;;;;;;;;;;;;5.15;100.00;100416.11;112803;1248;22410;-56
2024/03/15 06:57:15;;;;;;;;;;;;;;;5.44;100.00;100411.77;113080;1247;23070;-55
2024/03/15 07:08:37;;;;;;;;;;;;;;;5.60;100.00;100407.13;113019;1247;23102;-55
2024/03/15 07:11:28;;;;;;;;;;;;;;;5.56;100.00;100405.80;113105;1248;22936;-57
2024/03/15 07:14:41;;;;;;;;;;;;;;;5.55;100.00;100403.72;110746;1247;24572;-56
2024/03/15 07:21:45;;;;;;;;;;;;;;;5.52;100.00;100406.41;112837;1248;22395;-56
2024/03/15 07:24:49;;;;;;;;;;;;;;;5.50;100.00;100405.69;112999;1248;22406;-58
2024/03/15 07:27:17;;;;;;;;;;;;;;;5.51;100.00;100408.31;112367;1254;22793;-57
2024/03/15 07:30:13;;;;;;;;;;;;;;;5.52;100.00;100410.06;112390;1254;22413;-56
2024/03/15 07:33:51;;;;;;;;;;;;;;;5.56;100.00;100406.52;104965;1311;556806;-57
2024/03/15 07:36:32;;;;;;;;;;;;;;;5.55;100.00;100409.95;107403;1286;22526;-57
2024/03/15 07:39:14;;;;;;;;;;;;;;;5.56;100.00;100406.68;107547;1280;25316;-57
2024/03/15 07:42:58;;;;;;;;;;;;;;;5.59;100.00;100407.27;107539;1280;23916;-57
2024/03/15 07:45:59;;;;;;;;;;;;;;;5.60;100.00;100411.45;108493;1283;22594;-58
2024/03/15 07:52:15;;;;;;;;;;;;;;;5.73;100.00;100408.09;108352;1294;22485;-54
2024/03/15 07:54:56;;;;;;;;;;;;;;;5.75;100.00;100412.65;105624;1304;22580;-57
2024/03/15 07:57:35;;;;;;;;;;;;;;;5.79;100.00;100408.73;105738;1304;23429;-59
2024/03/15 08:05:06;;;;;;;;;;;;;;;5.85;100.00;100407.48;105451;1301;23335;-57
2024/03/15 08:07:47;;;;;;;;;;;;;;;5.84;100.00;100409.02;105627;1304;23373;-54
2024/03/15 08:13:54;;;;;;;;;;;;;;;5.81;100.00;100407.92;107368;1275;22552;-55
2024/03/15 08:34:49;;;;;;;;;;;;;;;5.96;100.00;100415.85;105753;1294;23132;-55
2024/03/15 08:37:43;;;;;;;;;;;;;;;5.93;100.00;100414.78;106274;1295;23117;-56
2024/03/15 08:40:59;;;;;;;;;;;;;;;5.92;100.00;100413.88;106075;1300;23167;-57
2024/03/15 08:43:49;;;;;;;;;;;;;;;5.91;100.00;100414.85;105667;1295;25408;-56
2024/03/15 08:56:07;;;;;;;;;;;;;;;6.08;100.00;100413.00;107560;1281;22560;-57
2024/03/15 08:58:54;;;;;;;;;;;;;;;6.11;100.00;100412.02;106280;1302;22637;-55
2024/03/15 09:02:04;;;;;;;;;;;;;;;6.12;100.00;100411.18;104841;1297;23357;-56
2024/03/15 09:05:38;;;;;;;;;;;;;;;6.10;100.00;100403.87;107432;1287;22481;31
2024/03/15 09:08:41;;;;;;;;;;;;;;;6.07;100.00;100406.91;107036;1294;22557;-58
2024/03/15 09:11:22;;;;;;;;;;;;;;;6.11;100.00;100406.48;105906;1297;22924;-56
2024/03/15 09:14:11;;;;;;;;;;;;;;;6.16;100.00;100403.80;106371;1296;22538;-55
2024/03/15 09:25:01;;;;;;;;;;;;;;;6.20;100.00;100400.60;106391;1298;25295;-58
2024/03/15 09:28:43;;;;;;;;;;;;;;;6.14;100.00;100398.39;106307;1297;22641;-57
2024/03/15 09:31:56;;;;;;;;;;;;;;;6.16;100.00;100396.38;105975;1295;25280;-58
2024/03/15 09:34:54;;;;;;;;;;;;;;;6.23;100.00;100392.84;105954;1297;22532;-57
2024/03/15 09:37:51;;;;;;;;;;;;;;;6.36;100.00;100395.70;105623;1296;23259;-57
2024/03/15 09:40:35;;;;;;;;;;;;;;;6.50;100.00;100398.21;106224;1297;22962;-57
2024/03/15 09:43:17;;;;;;;;;;;;;;;6.58;100.00;100399.20;106475;1296;22638;-58
2024/03/15 09:45:45;;;;;;;;;;;;;;;6.65;100.00;100399.17;106032;1297;22548;-58
2024/03/15 09:48:16;;;;;;;;;;;;;;;6.75;100.00;100400.90;107165;1296;22713;-57
2024/03/15 09:50:52;;;;;;;;;;;;;;;6.77;100.00;100398.67;106935;1296;22721;-58
2024/03/15 09:53:21;;;;;;;;;;;;;;;6.77;100.00;100400.93;106072;1297;22549;-58
2024/03/15 10:00:43;;;;;;;;;;;;;;;6.83;100.00;100396.36;105993;1294;22651;-57
2024/03/15 10:03:41;;;;;;;;;;;;;;;6.90;100.00;100395.80;106517;1296;22571;-57
2024/03/15 10:06:26;;;;;;;;;;;;;;;6.97;100.00;100396.59;106456;1297;22555;-56
2024/03/15 10:08:54;;;;;;;;;;;;;;;7.04;100.00;100396.17;107035;1297;23374;-57
2024/03/15 10:11:24;;;;;;;;;;;;;;;7.11;100.00;100393.69;106760;1295;23200;-57
2024/03/15 10:13:52;;;;;;;;;;;;;;;7.16;100.00;100394.98;106563;1295;23126;-57
2024/03/15 10:16:21;;;;;;;;;;;;;;;7.20;100.00;100396.96;106281;1298;22561;-57
2024/03/15 10:18:53;;;;;;;;;;;;;;;7.23;100.00;100395.77;106818;1297;23398;-56
2024/03/15 10:24:40;;;;;;;;;;;;;;;7.22;100.00;100393.16;105832;1297;23409;-57
2024/03/15 10:27:43;;;;;;;;;;;;;;;7.22;100.00;100391.60;105805;1296;25577;-56
2024/03/15 10:30:25;;;;;;;;;;;;;;;7.23;100.00;100387.45;106576;1296;22558;-57
2024/03/15 10:32:58;;;;;;;;;;;;;;;7.27;100.00;100386.13;105785;1297;22591;-57
2024/03/15 10:35:36;;;;;;;;;;;;;;;7.34;100.00;100383.09;105891;1301;22590;-58
2024/03/15 10:38:30;;;;;;;;;;;;;;;7.44;100.00;100378.72;105624;1295;22577;-57
2024/03/15 10:45:41;;;;;;;;;;;;;;;7.58;100.00;100378.41;106290;1282;23116;-57
2024/03/15 10:48:18;;;;;;;;;;;;;;;7.64;100.00;100376.05;105996;1299;22565;-58
2024/03/15 10:51:16;;;;;;;;;;;;;;;7.69;100.00;100372.13;105494;1297;22695;-57
2024/03/15 10:55:00;;;;;;;;;;;;;;;7.76;100.00;100371.00;105508;1301;22572;-56
2024/03/15 11:02:29;;;;;;;;;;;;;;;7.86;100.00;100378.24;106734;1294;23317;-57
2024/03/15 11:05:27;;;;;;;;;;;;;;;7.90;100.00;100373.60;105514;1292;25986;-57
2024/03/15 11:09:49;;;;;;;;;;;;;;;7.92;100.00;100375.52;107435;1292;23661;-56
2024/03/15 11:17:05;;;;;;;;;;;;;;;7.89;100.00;100369.95;108004;1287;23346;-56
2024/03/15 11:24:54;;;;;;;;;;;;;;;7.90;100.00;100367.00;105700;1301;24325;-59
2024/03/15 11:32:13;;;;;;;;;;;;;;;7.94;100.00;100375.04;106058;1294;24035;-50
2024/03/15 11:39:40;;;;;;;;;;;;;;;7.90;100.00;100370.98;104989;1298;22601;-53
2024/03/15 11:42:47;;;;;;;;;;;;;;;7.82;100.00;100374.02;104719;1300;25324;-67
2024/03/15 11:46:32;;;;;;;;;;;;;;;7.70;100.00;100374.92;106921;1286;22540;-55
2024/03/15 11:50:11;;;;;;;;;;;;;;;7.63;100.00;100374.13;106928;1293;23022;-55
2024/03/15 11:54:00;;;;;;;;;;;;;;;7.64;100.00;100376.05;107054;1292;23473;-58
2024/03/15 12:01:40;;;;;;;;;;;;;;;7.56;100.00;100378.55;107888;1275;22520;-55
2024/03/15 12:09:15;;;;;;;;;;;;;;;7.53;100.00;100383.19;106214;1297;22589;-57
2024/03/15 12:13:01;;;;;;;;;;;;;;;7.52;100.00;100387.34;107409;1300;22897;-58
2024/03/15 12:16:56;;;;;;;;;;;;;;;7.50;100.00;100388.19;105755;1292;22560;-60
2024/03/15 12:24:27;;;;;;;;;;;;;;;7.45;100.00;100394.71;106699;1292;22559;-63
2024/03/15 12:26:58;;;;;;;;;;;;;;;7.44;100.00;100393.15;106701;1298;22572;-50
2024/03/15 12:29:38;;;;;;;;;;;;;;;7.38;100.00;100396.18;106435;1298;22625;-61
2024/03/15 12:32:13;;;;;;;;;;;;;;;7.33;100.00;100396.11;106704;1298;22580;-50
2024/03/15 12:34:47;;;;;;;;;;;;;;;7.28;100.00;100401.40;107666;1297;22563;-52
2024/03/15 12:37:15;;;;;;;;;;;;;;;7.19;100.00;100403.54;107801;1294;23467;-49
2024/03/15 12:39:43;;;;;;;;;;;;;;;7.12;100.00;100403.25;107731;1299;22596;-49
2024/03/15 12:42:15;;;;;;;;;;;;;;;7.09;100.00;100404.58;107753;1293;23750;-50
2024/03/15 12:44:45;;;;;;;;;;;;;;;7.09;100.00;100405.11;106912;1293;23468;-47
2024/03/15 12:47:21;;;;;;;;;;;;;;;7.09;100.00;100405.98;106730;1300;23272;-50
2024/03/15 12:49:48;;;;;;;;;;;;;;;7.06;100.00;100408.86;107664;1295;22595;-52
2024/03/15 12:52:15;;;;;;;;;;;;;;;7.05;100.00;100407.64;107710;1298;22562;-47
2024/03/15 12:54:44;;;;;;;;;;;;;;;7.06;100.00;100407.65;107703;1300;22512;-55
2024/03/15 12:57:12;;;;;;;;;;;;;;;7.06;100.00;100405.91;107294;1298;23390;-57
2024/03/15 13:00:28;;;;;;;;;;;;;;;7.04;100.00;100409.88;107679;1291;22524;-60
2024/03/15 13:02:57;;;;;;;;;;;;;;;7.00;100.00;100410.67;106841;1299;22559;-59
2024/03/15 13:05:25;;;;;;;;;;;;;;;6.97;100.00;100409.76;106739;1295;24687;-58
2024/03/15 13:07:58;;;;;;;;;;;;;;;6.96;100.00;100410.95;106876;1295;22593;-57
2024/03/15 13:10:49;;;;;;;;;;;;;;;6.96;100.00;100410.97;106745;1294;23230;-58
2024/03/15 13:13:18;;;;;;;;;;;;;;;6.96;100.00;100409.08;107220;1297;24126;-56
2024/03/15 13:15:48;;;;;;;;;;;;;;;6.95;100.00;100409.55;106783;1298;22679;-60
2024/03/15 13:18:24;;;;;;;;;;;;;;;6.91;100.00;100408.98;107634;1295;22667;-59
2024/03/15 13:21:01;;;;;;;;;;;;;;;6.88;100.00;100408.75;106072;1299;23171;-57
2024/03/15 13:23:29;;;;;;;;;;;;;;;6.88;100.00;100411.01;105833;1298;22616;-57
2024/03/15 13:26:09;;;;;;;;;;;;;;;6.89;100.00;100414.85;106934;1299;22646;-59
2024/03/15 13:28:41;;;;;;;;;;;;;;;6.92;100.00;100411.95;106640;1299;23385;-59
2024/03/15 13:31:18;;;;;;;;;;;;;;;6.91;100.00;100412.10;107177;1299;25578;-59
2024/03/15 13:34:04;;;;;;;;;;;;;;;6.89;100.00;100410.15;105943;1292;22599;-59
2024/03/15 13:36:41;;;;;;;;;;;;;;;6.85;100.00;100411.48;106185;1298;24726;-59
2024/03/15 13:39:29;;;;;;;;;;;;;;;6.79;100.00;100409.98;105555;1292;24270;-59
2024/03/15 13:41:58;;;;;;;;;;;;;;;6.75;100.00;100409.75;106513;1298;23033;-57
2024/03/15 13:44:30;;;;;;;;;;;;;;;6.73;100.00;100410.76;106053;1299;25200;-59
2024/03/15 13:47:01;;;;;;;;;;;;;;;6.71;100.00;100414.52;105950;1299;23177;-58
2024/03/15 13:49:32;;;;;;;;;;;;;;;6.69;100.00;100413.28;106120;1292;22534;-59
2024/03/15 13:52:18;;;;;;;;;;;;;;;6.64;100.00;100411.12;105769;1299;22573;-60
2024/03/15 13:54:57;;;;;;;;;;;;;;;6.58;100.00;100415.52;107007;1281;22626;-58
2024/03/15 13:59:09;;;;;;;;;;;;;;;6.51;100.00;100413.48;107252;1297;22529;-56
2024/03/15 14:01:39;;;;;;;;;;;;;;;6.48;100.00;100414.11;106249;1300;22704;-57
2024/03/15 14:04:16;;;;;;;;;;;;;;;6.42;100.00;100417.47;105761;1297;22533;-56
2024/03/15 14:06:43;;;;;;;;;;;;;;;6.39;100.00;100414.98;106828;1300;22514;-59
2024/03/15 14:09:25;;;;;;;;;;;;;;;6.38;100.00;100422.07;105743;1297;24295;-56
2024/03/15 14:11:55;;;;;;;;;;;;;;;6.36;100.00;100420.64;105317;1300;23916;-58
2024/03/15 14:18:25;;;;;;;;;;;;;;;6.28;100.00;100421.37;105551;1297;24233;-59
2024/03/15 14:20:54;;;;;;;;;;;;;;;6.25;100.00;100421.63;105707;1299;22560;-58
2024/03/15 14:23:42;;;;;;;;;;;;;;;6.21;100.00;100424.67;106858;1300;22529;-58
2024/03/15 14:26:26;;;;;;;;;;;;;;;6.17;100.00;100425.31;105522;1298;22609;-57
2024/03/15 14:28:55;;;;;;;;;;;;;;;6.14;100.00;100429.22;105975;1298;25660;-57
2024/03/15 14:31:25;;;;;;;;;;;;;;;6.11;100.00;100428.83;105905;1298;22542;-57
2024/03/15 14:33:53;;;;;;;;;;;;;;;6.08;100.00;100430.15;105849;1295;22554;-57
2024/03/15 14:36:22;;;;;;;;;;;;;;;6.05;100.00;100436.15;107372;1295;22517;-59
2024/03/15 14:38:54;;;;;;;;;;;;;;;5.98;100.00;100436.69;108078;1298;23314;-57
2024/03/15 14:50:07;;;;;;;;;;;;;;;5.72;100.00;100443.03;106850;1284;25385;-56
2024/03/15 14:52:38;;;;;;;;;;;;;;;5.68;100.00;100447.26;106541;1292;22542;-56
2024/03/15 14:55:06;;;;;;;;;;;;;;;5.62;100.00;100450.59;106474;1298;25417;-56
2024/03/15 14:58:02;;;;;;;;;;;;;;;5.55;100.00;100445.60;107574;1298;22484;-56
2024/03/15 15:01:55;;;;;;;;;;;;;;;5.41;100.00;100450.63;107868;1294;22559;-58
2024/03/15 15:04:25;;;;;;;;;;;;;;;5.34;100.00;100454.79;107404;1300;23380;-54
2024/03/15 15:06:57;;;;;;;;;;;;;;;5.28;100.00;100455.16;107085;1300;23212;-57
2024/03/15 15:09:25;;;;;;;;;;;;;;;5.23;100.00;100456.95;107990;1294;22518;-55
2024/03/15 15:11:58;;;;;;;;;;;;;;;5.17;100.00;100455.08;107674;1293;22548;-54
2024/03/15 15:14:28;;;;;;;;;;;;;;;5.11;100.00;100459.44;106801;1300;22597;-59
2024/03/15 15:17:01;;;;;;;;;;;;;;;5.07;100.00;100461.59;107920;1300;22513;-56
2024/03/15 15:19:31;;;;;;;;;;;;;;;5.04;100.00;100459.98;107324;1293;22626;-56
2024/03/15 15:22:31;;;;;;;;;;;;;;;5.01;100.00;100461.27;106187;1297;22564;-59
2024/03/15 15:25:45;;;;;;;;;;;;;;;4.98;100.00;100457.02;105558;1295;22597;-58
2024/03/15 15:28:14;;;;;;;;;;;;;;;4.97;100.00;100459.40;106173;1297;22533;-56
2024/03/15 15:31:17;;;;;;;;;;;;;;;4.95;100.00;100461.61;105405;1295;22570;-54
2024/03/15 15:33:46;;;;;;;;;;;;;;;4.94;100.00;100461.60;105353;1300;22550;-59
2024/03/15 15:36:14;;;;;;;;;;;;;;;4.93;100.00;100464.17;106147;1298;22749;-57
2024/03/15 15:38:42;;;;;;;;;;;;;;;4.92;100.00;100464.11;107426;1302;22602;-58
2024/03/15 15:45:56;;;;;;;;;;;;;;;4.86;100.00;100467.94;106154;1294;22539;-57
2024/03/15 15:48:25;;;;;;;;;;;;;;;4.83;100.00;100467.88;105304;1295;22541;-59
2024/03/15 15:50:54;;;;;;;;;;;;;;;4.79;100.00;100470.56;105170;1300;22537;-58
2024/03/15 15:53:25;;;;;;;;;;;;;;;4.73;100.00;100473.50;105171;1300;22587;-57
2024/03/15 15:56:10;;;;;;;;;;;;;;;4.64;100.00;100473.95;106197;1285;22547;-58
2024/03/15 15:58:44;;;;;;;;;;;;;;;4.57;100.00;100481.36;105467;1299;25217;-58
2024/03/15 16:01:17;;;;;;;;;;;;;;;4.49;100.00;100479.41;105849;1300;22683;-58
2024/03/15 16:06:55;;;;;;;;;;;;;;;4.34;100.00;100482.97;105275;1298;22532;-58
2024/03/15 16:09:23;;;;;;;;;;;;;;;4.29;100.00;100485.08;105490;1298;24728;-58
2024/03/15 16:11:51;;;;;;;;;;;;;;;4.25;100.00;100483.58;106027;1298;23257;-55
2024/03/15 16:14:19;;;;;;;;;;;;;;;4.19;100.00;100482.56;108099;1297;22521;-55
2024/03/15 16:16:48;;;;;;;;;;;;;;;4.11;100.00;100485.42;106449;1292;22545;-55
2024/03/15 16:19:16;;;;;;;;;;;;;;;4.04;100.00;100487.64;106722;1295;23182;-58
2024/03/15 16:21:44;;;;;;;;;;;;;;;4.01;100.00;100492.04;105457;1298;22547;-58
2024/03/15 16:24:12;;;;;;;;;;;;;;;3.97;100.00;100498.83;104951;1298;25285;-55
2024/03/15 16:26:41;;;;;;;;;;;;;;;3.94;100.00;100497.55;105464;1298;25294;-57
2024/03/15 16:29:11;;;;;;;;;;;;;;;3.91;100.00;100501.75;107705;1298;22550;-56
2024/03/15 16:31:39;;;;;;;;;;;;;;;3.88;100.00;100504.44;105480;1297;22567;-56
2024/03/15 16:34:07;;;;;;;;;;;;;;;3.86;100.00;100506.61;106255;1298;22559;-58
2024/03/15 16:36:35;;;;;;;;;;;;;;;3.86;100.00;100509.86;105618;1299;25229;-56
2024/03/15 16:39:06;;;;;;;;;;;;;;;3.86;100.00;100512.29;105506;1298;22533;-56
2024/03/15 16:46:07;;;;;;;;;;;;;;;3.85;100.00;100512.80;106003;1298;22599;-58
2024/03/15 16:48:36;;;;;;;;;;;;;;;3.84;100.00;100513.98;105866;1298;25421;-55
2024/03/15 16:51:07;;;;;;;;;;;;;;;3.83;100.00;100519.96;105631;1295;22546;-56
2024/03/15 16:53:36;;;;;;;;;;;;;;;3.81;100.00;100522.14;105300;1295;22562;-56
2024/03/15 16:56:04;;;;;;;;;;;;;;;3.80;100.00;100523.67;105628;1294;22557;-59
2024/03/15 16:58:36;;;;;;;;;;;;;;;3.79;100.00;100528.13;105439;1298;22534;-59
2024/03/15 17:01:06;;;;;;;;;;;;;;;3.76;100.00;100533.20;105613;1298;25436;-57
2024/03/15 17:03:34;;;;;;;;;;;;;;;3.74;100.00;100534.88;105990;1298;25713;-55
2024/03/15 17:06:02;;;;;;;;;;;;;;;3.73;100.00;100534.52;106013;1298;23151;-59
